Time;durP1;ratioP1;P1;durP2;ratioP2;P2;SDS_P1;SDS_P2;PMS_P1;PMS_P2;Temp;Humidity;BMP_temperature;BMP_pressure;BME280_temperature;BME280_humidity;BME280_pressure;Samples;Min_cycle;Max_cycle;Signal;HPM_P1;HPM_P2
2021/10/27 00:01:27;;;;;;;985.78;880.10;;;;;;;;;;5058028;28;20051;-78
2021/10/27 00:03:53;;;;;;;1009.38;902.33;;;;;;;;;;5068916;28;20040;-78
2021/10/27 00:06:20;;;;;;;1002.92;895.88;;;;;;;;;;5069597;28;20027;-79
2021/10/27 00:08:49;;;;;;;998.80;892.60;;;;;;;;;;5069722;28;20032;-78
2021/10/27 00:11:15;;;;;;;1004.35;897.70;;;;;;;;;;5087208;28;20705;-77
2021/10/27 00:13:41;;;;;;;997.58;890.78;;;;;;;;;;5069516;28;20028;-80
2021/10/27 00:16:07;;;;;;;1007.92;900.90;;;;;;;;;;5073066;28;20052;-78
2021/10/27 00:18:33;;;;;;;1030.32;922.13;;;;;;;;;;5081203;28;20020;-79
2021/10/27 00:21:00;;;;;;;994.40;888.30;;;;;;;;;;5075124;28;20130;-77
2021/10/27 00:23:26;;;;;;;1017.33;909.75;;;;;;;;;;5081738;28;20108;-80
2021/10/27 00:25:52;;;;;;;1006.97;900.00;;;;;;;;;;5067936;28;20059;-77
2021/10/27 00:28:18;;;;;;;1018.50;911.25;;;;;;;;;;5065362;28;20506;-78
2021/10/27 00:30:44;;;;;;;1016.40;909.15;;;;;;;;;;5071361;28;20399;-78
2021/10/27 00:33:10;;;;;;;1005.58;898.58;;;;;;;;;;5064401;28;20074;-77
2021/10/27 00:35:36;;;;;;;1005.00;898.10;;;;;;;;;;5069150;28;20016;-79
2021/10/27 00:38:02;;;;;;;1013.38;906.50;;;;;;;;;;5087962;28;20016;-76
2021/10/27 00:40:28;;;;;;;1021.30;913.40;;;;;;;;;;5069391;28;20143;-77
2021/10/27 00:42:55;;;;;;;1022.38;914.78;;;;;;;;;;5068802;28;20046;-78
2021/10/27 00:45:21;;;;;;;1016.25;908.78;;;;;;;;;;5067779;28;20017;-78
2021/10/27 00:47:47;;;;;;;999.80;893.50;;;;;;;;;;5064173;28;20377;-79
2021/10/27 00:50:13;;;;;;;1021.80;914.35;;;;;;;;;;5054089;28;20024;-79
2021/10/27 00:52:39;;;;;;;1016.10;908.78;;;;;;;;;;5069465;28;20127;-78
2021/10/27 00:55:06;;;;;;;1005.22;898.45;;;;;;;;;;5068404;28;20539;-77
2021/10/27 00:57:32;;;;;;;1004.72;898.38;;;;;;;;;;5069993;28;20115;-77
2021/10/27 00:59:58;;;;;;;1017.42;910.17;;;;;;;;;;5070027;28;20119;-79
2021/10/27 01:02:24;;;;;;;1032.07;924.38;;;;;;;;;;5070517;28;20049;-79
2021/10/27 01:04:50;;;;;;;1022.20;914.72;;;;;;;;;;5088937;28;20038;-77
2021/10/27 01:07:16;;;;;;;1016.08;909.05;;;;;;;;;;5088978;28;20481;-77
2021/10/27 01:09:43;;;;;;;1018.85;911.58;;;;;;;;;;5071884;28;20085;-78
2021/10/27 01:12:09;;;;;;;1030.68;922.88;;;;;;;;;;5062815;28;20571;-77
2021/10/27 01:14:37;;;;;;;1023.83;916.45;;;;;;;;;;5069763;28;20028;-79
2021/10/27 01:17:04;;;;;;;1031.25;923.47;;;;;;;;;;5070996;28;20090;-77
2021/10/27 01:19:34;;;;;;;1028.90;921.28;;;;;;;;;;5066467;28;20225;-77
2021/10/27 01:22:00;;;;;;;1033.25;925.47;;;;;;;;;;5061695;28;20566;-79
2021/10/27 01:24:26;;;;;;;1028.50;920.63;;;;;;;;;;5091137;28;20184;-77
2021/10/27 01:26:52;;;;;;;1024.03;916.50;;;;;;;;;;5073004;28;20024;-77
2021/10/27 01:29:18;;;;;;;1040.75;932.38;;;;;;;;;;5087932;28;20026;-78
2021/10/27 01:31:44;;;;;;;1028.88;921.05;;;;;;;;;;5088096;28;20024;-78
2021/10/27 01:34:10;;;;;;;1024.65;916.95;;;;;;;;;;5090192;28;20020;-78
2021/10/27 01:36:36;;;;;;;1035.50;927.38;;;;;;;;;;5071978;28;20024;-78
2021/10/27 01:39:02;;;;;;;1029.97;922.33;;;;;;;;;;5070032;28;20473;-79
2021/10/27 01:41:29;;;;;;;1021.15;913.72;;;;;;;;;;5060790;28;20034;-78
2021/10/27 01:43:56;;;;;;;1023.13;915.55;;;;;;;;;;5071460;28;20024;-79
2021/10/27 01:46:26;;;;;;;1016.10;909.13;;;;;;;;;;5066292;28;20032;-79
2021/10/27 01:48:52;;;;;;;1033.03;925.20;;;;;;;;;;5072901;28;20579;-78
2021/10/27 01:51:18;;;;;;;1024.53;917.25;;;;;;;;;;5062192;28;20455;-77
2021/10/27 01:53:44;;;;;;;1028.72;921.10;;;;;;;;;;5071444;28;20032;-78
2021/10/27 01:56:10;;;;;;;1034.65;926.70;;;;;;;;;;5073514;28;20024;-78
2021/10/27 01:58:36;;;;;;;1026.85;919.08;;;;;;;;;;5089610;28;20043;-78
2021/10/27 02:01:02;;;;;;;1011.20;904.70;;;;;;;;;;5058233;28;20024;-79
2021/10/27 02:03:28;;;;;;;1029.05;920.85;;;;;;;;;;5056492;28;20028;-77
2021/10/27 02:05:54;;;;;;;1033.95;926.10;;;;;;;;;;5071390;28;20456;-79
2021/10/27 02:08:21;;;;;;;1034.45;926.22;;;;;;;;;;5072388;28;20024;-79
2021/10/27 02:10:47;;;;;;;1033.10;925.20;;;;;;;;;;5088406;28;20394;-78
2021/10/27 02:13:13;;;;;;;1037.15;929.03;;;;;;;;;;5072533;28;20050;-79
2021/10/27 02:15:41;;;;;;;1035.57;927.83;;;;;;;;;;5084142;28;20462;-77
2021/10/27 02:18:07;;;;;;;1039.63;931.45;;;;;;;;;;5072973;28;20106;-77
2021/10/27 02:20:33;;;;;;;1030.30;922.47;;;;;;;;;;5071354;28;20103;-77
2021/10/27 02:22:59;;;;;;;1020.03;912.63;;;;;;;;;;5090548;28;20023;-78
2021/10/27 02:25:25;;;;;;;1026.82;919.17;;;;;;;;;;5071512;28;20375;-79
2021/10/27 02:27:51;;;;;;;1023.03;915.58;;;;;;;;;;5071377;28;20135;-78
2021/10/27 02:30:17;;;;;;;1024.72;917.03;;;;;;;;;;5072408;28;20058;-79
2021/10/27 02:32:44;;;;;;;1007.83;901.22;;;;;;;;;;5071431;28;20467;-77
2021/10/27 02:35:10;;;;;;;1022.08;914.55;;;;;;;;;;5071761;28;20035;-78
2021/10/27 02:37:36;;;;;;;1022.08;914.70;;;;;;;;;;5071589;28;20220;-79
2021/10/27 02:40:02;;;;;;;1014.45;907.45;;;;;;;;;;5071870;28;20020;-80
2021/10/27 02:42:28;;;;;;;1028.10;920.28;;;;;;;;;;5070301;28;20031;-80
2021/10/27 02:44:54;;;;;;;1034.00;925.80;;;;;;;;;;5069166;28;20028;-78
2021/10/27 02:47:20;;;;;;;1031.38;923.58;;;;;;;;;;5074596;28;20392;-79
2021/10/27 02:49:46;;;;;;;1047.10;938.45;;;;;;;;;;5071624;28;20024;-78
2021/10/27 02:52:12;;;;;;;1008.85;902.60;;;;;;;;;;5070704;28;20107;-79
2021/10/27 02:54:38;;;;;;;1035.25;927.30;;;;;;;;;;5089678;28;20142;-79
2021/10/27 02:57:04;;;;;;;1033.10;925.40;;;;;;;;;;5089044;28;20028;-79
2021/10/27 02:59:31;;;;;;;1012.00;905.20;;;;;;;;;;5071433;28;20025;-77
2021/10/27 03:01:57;;;;;;;1020.97;913.72;;;;;;;;;;5065431;28;20066;-79
2021/10/27 03:04:23;;;;;;;969.08;864.78;;;;;;;;;;5067310;28;20126;-78
2021/10/27 03:06:49;;;;;;;962.33;858.10;;;;;;;;;;5088777;28;20043;-78
2021/10/27 03:09:15;;;;;;;1017.30;910.00;;;;;;;;;;5077399;28;20020;-80
2021/10/27 03:11:41;;;;;;;1018.95;911.58;;;;;;;;;;5062146;28;20476;-78
2021/10/27 03:14:07;;;;;;;1027.30;919.55;;;;;;;;;;5065585;28;20020;-79
2021/10/27 03:16:33;;;;;;;1020.53;913.08;;;;;;;;;;5068599;28;20105;-79
2021/10/27 03:18:59;;;;;;;1023.15;915.85;;;;;;;;;;5070442;28;20024;-78
2021/10/27 03:21:25;;;;;;;1033.00;925.08;;;;;;;;;;5058976;28;20020;-78
2021/10/27 03:23:52;;;;;;;1030.55;922.60;;;;;;;;;;5069179;28;20086;-77
2021/10/27 03:26:18;;;;;;;1034.10;925.88;;;;;;;;;;5067247;28;20119;-79
2021/10/27 03:28:44;;;;;;;1033.25;925.22;;;;;;;;;;5068353;28;20062;-79
2021/10/27 03:31:10;;;;;;;1014.38;907.00;;;;;;;;;;5064837;28;20491;-78
2021/10/27 03:33:36;;;;;;;1028.78;920.95;;;;;;;;;;5069635;28;20471;-79
2021/10/27 03:36:02;;;;;;;1022.83;915.30;;;;;;;;;;5058808;28;20102;-78
2021/10/27 03:38:28;;;;;;;1044.38;935.90;;;;;;;;;;5076216;28;20060;-79
2021/10/27 03:40:54;;;;;;;1009.22;902.97;;;;;;;;;;5070495;28;20506;-78
2021/10/27 03:43:20;;;;;;;1026.18;918.63;;;;;;;;;;5069596;28;20032;-77
2021/10/27 03:45:46;;;;;;;1030.82;922.90;;;;;;;;;;5067761;28;20067;-78
2021/10/27 03:48:12;;;;;;;1025.70;918.28;;;;;;;;;;5089063;28;20566;-79
2021/10/27 03:50:40;;;;;;;1032.10;921.65;;;;;;;;;;5088631;28;20020;-78
2021/10/27 03:53:06;;;;;;;1035.07;927.22;;;;;;;;;;5070205;28;20039;-78
2021/10/27 03:55:32;;;;;;;1034.40;926.38;;;;;;;;;;5070437;28;20028;-78
2021/10/27 03:57:59;;;;;;;1035.07;927.28;;;;;;;;;;5088112;28;20533;-79
2021/10/27 04:00:26;;;;;;;1030.38;922.67;;;;;;;;;;5069304;28;20038;-78
2021/10/27 04:02:52;;;;;;;1028.35;920.58;;;;;;;;;;5069690;28;20136;-78
2021/10/27 04:05:18;;;;;;;1026.22;918.35;;;;;;;;;;5063700;28;20052;-78
2021/10/27 04:07:45;;;;;;;1026.75;919.13;;;;;;;;;;5088861;28;20059;-80
2021/10/27 04:10:12;;;;;;;1031.03;923.08;;;;;;;;;;5069763;28;20027;-79
2021/10/27 04:12:39;;;;;;;1023.78;916.45;;;;;;;;;;5070242;28;20111;-79
2021/10/27 04:15:05;;;;;;;1021.35;913.97;;;;;;;;;;5086281;28;20036;-77
2021/10/27 04:17:32;;;;;;;1029.25;921.78;;;;;;;;;;5087490;28;20044;-79
2021/10/27 04:19:58;;;;;;;1021.58;914.08;;;;;;;;;;5070047;28;20036;-77
2021/10/27 04:22:24;;;;;;;1029.00;920.70;;;;;;;;;;5069104;28;20028;-79
2021/10/27 04:24:50;;;;;;;1023.17;915.88;;;;;;;;;;5069542;28;20043;-77
2021/10/27 04:27:17;;;;;;;1020.55;913.35;;;;;;;;;;5068953;28;20499;-77
2021/10/27 04:29:43;;;;;;;1024.95;917.45;;;;;;;;;;5077632;28;20056;-78
2021/10/27 04:32:09;;;;;;;1031.55;923.15;;;;;;;;;;5086469;28;20025;-78
2021/10/27 04:34:35;;;;;;;1022.35;915.17;;;;;;;;;;5069625;28;20529;-78
2021/10/27 04:37:01;;;;;;;1030.35;922.83;;;;;;;;;;5069728;28;20036;-78
2021/10/27 04:39:27;;;;;;;1027.05;919.45;;;;;;;;;;5069844;28;20458;-79
2021/10/27 04:41:53;;;;;;;1024.03;916.45;;;;;;;;;;5062992;28;20147;-76
2021/10/27 04:44:19;;;;;;;1020.20;912.75;;;;;;;;;;5085513;28;20364;-78
2021/10/27 04:46:45;;;;;;;1021.25;913.92;;;;;;;;;;5064406;28;20032;-76
2021/10/27 04:49:11;;;;;;;1020.15;912.70;;;;;;;;;;5051218;28;20027;-79
2021/10/27 04:51:37;;;;;;;1021.28;914.03;;;;;;;;;;5079376;28;20054;-77
2021/10/27 04:54:03;;;;;;;1013.33;906.35;;;;;;;;;;5075351;28;20028;-77
2021/10/27 04:56:30;;;;;;;1011.05;904.10;;;;;;;;;;5076449;28;20055;-79
2021/10/27 04:58:56;;;;;;;1020.33;913.00;;;;;;;;;;5079631;28;20373;-78
2021/10/27 05:01:22;;;;;;;1016.05;909.05;;;;;;;;;;5087482;28;20540;-78
2021/10/27 05:03:48;;;;;;;1010.35;903.63;;;;;;;;;;5079547;28;20311;-78
2021/10/27 05:06:14;;;;;;;1017.28;910.13;;;;;;;;;;5069324;28;20066;-79
2021/10/27 05:08:41;;;;;;;1014.63;907.65;;;;;;;;;;5087269;28;20083;-78
2021/10/27 05:11:07;;;;;;;1014.65;907.70;;;;;;;;;;5087038;28;20024;-77
2021/10/27 05:13:33;;;;;;;1014.15;907.05;;;;;;;;;;5079829;28;20483;-79
2021/10/27 05:15:59;;;;;;;1016.20;908.72;;;;;;;;;;5084659;28;20044;-79
2021/10/27 05:18:25;;;;;;;1017.95;910.85;;;;;;;;;;5056176;28;20024;-78
2021/10/27 05:20:52;;;;;;;1020.85;913.28;;;;;;;;;;5073816;28;20020;-79
2021/10/27 05:23:18;;;;;;;1014.28;907.22;;;;;;;;;;5066076;28;20033;-78
2021/10/27 05:25:44;;;;;;;1014.92;907.63;;;;;;;;;;5079157;28;20013;-78
2021/10/27 05:28:11;;;;;;;1016.58;909.22;;;;;;;;;;5065893;28;20039;-77
2021/10/27 05:30:37;;;;;;;1023.42;915.85;;;;;;;;;;5057192;28;20540;-77
2021/10/27 05:33:03;;;;;;;1021.65;914.35;;;;;;;;;;5077520;28;20040;-77
2021/10/27 05:35:31;;;;;;;1013.78;906.85;;;;;;;;;;5060736;28;20068;-77
2021/10/27 05:37:59;;;;;;;1023.55;915.95;;;;;;;;;;5087145;28;20024;-79
2021/10/27 05:40:25;;;;;;;1010.72;903.92;;;;;;;;;;5069171;28;20074;-78
2021/10/27 05:42:51;;;;;;;1010.00;901.70;;;;;;;;;;5068360;28;20074;-79
2021/10/27 05:45:19;;;;;;;1011.28;904.17;;;;;;;;;;5083786;28;20039;-77
2021/10/27 05:47:49;;;;;;;1009.45;902.53;;;;;;;;;;5089443;28;20435;-79
2021/10/27 05:50:31;;;;;;;1001.80;894.97;;;;;;;;;;5083287;28;20293;-78
2021/10/27 05:55:42;;;;;;;1001.35;894.75;;;;;;;;;;5089192;28;20071;-76
2021/10/27 05:58:09;;;;;;;1007.80;900.83;;;;;;;;;;5057759;28;20085;-77
2021/10/27 06:00:36;;;;;;;1019.63;912.03;;;;;;;;;;5066076;28;20038;-77
2021/10/27 06:03:02;;;;;;;1013.83;906.75;;;;;;;;;;5087548;28;20027;-78
2021/10/27 06:05:28;;;;;;;1016.63;909.35;;;;;;;;;;5088679;28;20036;-79
2021/10/27 06:07:55;;;;;;;1015.38;907.97;;;;;;;;;;5071930;28;20233;-77
2021/10/27 06:10:22;;;;;;;1017.05;909.65;;;;;;;;;;5075511;28;20243;-77
2021/10/27 06:12:49;;;;;;;1015.58;908.17;;;;;;;;;;5085205;28;20138;-78
2021/10/27 06:15:16;;;;;;;1010.00;902.97;;;;;;;;;;5088404;28;20021;-77
2021/10/27 06:17:42;;;;;;;1024.25;916.35;;;;;;;;;;5067238;28;20543;-79
2021/10/27 06:20:08;;;;;;;1016.88;909.30;;;;;;;;;;5064744;28;20123;-78
2021/10/27 06:22:34;;;;;;;1020.38;912.83;;;;;;;;;;5071927;28;20032;-77
2021/10/27 06:25:00;;;;;;;1022.10;914.38;;;;;;;;;;5100149;28;20042;-78
2021/10/27 06:27:27;;;;;;;1015.92;908.75;;;;;;;;;;5071339;28;20024;-79
2021/10/27 06:30:09;;;;;;;1025.90;917.95;;;;;;;;;;5084111;28;20509;-79
2021/10/27 06:35:14;;;;;;;1016.15;908.75;;;;;;;;;;5070193;28;20024;-78
2021/10/27 06:46:11;;;;;;;1014.63;907.33;;;;;;;;;;5083677;28;20050;-76
2021/10/27 06:48:37;;;;;;;1002.30;893.53;;;;;;;;;;5071467;28;20036;-77
2021/10/27 06:51:03;;;;;;;1025.45;917.70;;;;;;;;;;5060649;28;20510;-79
2021/10/27 06:53:30;;;;;;;1013.90;906.80;;;;;;;;;;5059214;28;20442;-77
2021/10/27 06:55:57;;;;;;;1021.67;913.83;;;;;;;;;;5064133;28;20036;-79
2021/10/27 06:58:23;;;;;;;1014.90;907.70;;;;;;;;;;5064652;28;20051;-79
2021/10/27 07:00:53;;;;;;;1019.92;912.60;;;;;;;;;;5065847;28;20020;-80
2021/10/27 07:16:51;;;;;;;1016.72;909.03;;;;;;;;;;5080250;28;20094;-77
2021/10/27 07:19:17;;;;;;;1014.88;907.67;;;;;;;;;;5084074;28;20031;-78
2021/10/27 07:21:43;;;;;;;1031.55;923.70;;;;;;;;;;5070160;28;20028;-77
2021/10/27 07:24:13;;;;;;;1026.25;918.50;;;;;;;;;;5067311;28;20025;-77
2021/10/27 07:26:39;;;;;;;;;;;;;;;;;;5070103;28;20384;-76
2021/10/27 07:29:05;;;;;;;981.70;875.67;;;;;;;;;;5070513;28;20191;-76
2021/10/27 07:31:33;;;;;;;1008.45;901.30;;;;;;;;;;5086690;28;20071;-76
2021/10/27 07:34:07;;;;;;;1020.70;913.13;;;;;;;;;;5071928;28;20032;-78
2021/10/27 07:39:51;;;;;;;1020.28;912.88;;;;;;;;;;5071898;28;20127;-77
2021/10/27 07:42:10;;;;;;;1021.40;913.58;;;;;;;;;;5085588;28;20043;-78
2021/10/27 07:44:36;;;;;;;1025.05;917.30;;;;;;;;;;5085837;28;20058;-77
2021/10/27 07:47:02;;;;;;;1025.43;917.72;;;;;;;;;;5055152;28;20067;-78
2021/10/27 07:49:28;;;;;;;1012.78;905.83;;;;;;;;;;5065191;28;20027;-78
2021/10/27 07:51:54;;;;;;;1025.22;917.83;;;;;;;;;;5067486;28;20108;-78
2021/10/27 07:54:20;;;;;;;1015.45;908.33;;;;;;;;;;5066903;28;20324;-78
2021/10/27 07:56:47;;;;;;;1026.55;918.90;;;;;;;;;;5084384;28;20069;-78
2021/10/27 07:59:15;;;;;;;1031.95;924.05;;;;;;;;;;5083059;28;20111;-78
2021/10/27 08:01:41;;;;;;;1025.60;918.03;;;;;;;;;;5082771;28;20437;-78
2021/10/27 08:04:07;;;;;;;1026.53;918.92;;;;;;;;;;5055799;28;20403;-76
2021/10/27 08:06:33;;;;;;;1023.75;916.25;;;;;;;;;;5081796;28;20036;-77
2021/10/27 08:09:02;;;;;;;1008.90;902.55;;;;;;;;;;5082677;28;20024;-78
2021/10/27 08:11:28;;;;;;;1027.53;919.85;;;;;;;;;;5061059;28;20025;-78
2021/10/27 08:13:55;;;;;;;1006.78;900.40;;;;;;;;;;5085667;28;20024;-77
2021/10/27 08:16:21;;;;;;;990.22;884.58;;;;;;;;;;5083107;28;20032;-77
2021/10/27 08:18:47;;;;;;;995.78;889.83;;;;;;;;;;5083300;28;20028;-76
2021/10/27 08:21:13;;;;;;;1008.10;901.42;;;;;;;;;;5058995;28;20024;-77
2021/10/27 08:23:41;;;;;;;1025.47;917.88;;;;;;;;;;5061502;28;20411;-78
2021/10/27 08:26:10;;;;;;;1014.05;906.67;;;;;;;;;;5083318;28;20274;-78
2021/10/27 08:28:41;;;;;;;1011.35;904.72;;;;;;;;;;5082986;28;20059;-79
2021/10/27 08:34:03;;;;;;;1001.85;895.67;;;;;;;;;;5083968;28;20024;-76
2021/10/27 08:36:29;;;;;;;996.78;890.45;;;;;;;;;;5082553;28;20380;-76
2021/10/27 08:38:55;;;;;;;948.05;844.83;;;;;;;;;;5083680;28;20024;-77
2021/10/27 08:41:21;;;;;;;1003.38;897.35;;;;;;;;;;5083906;28;20103;-78
2021/10/27 08:43:47;;;;;;;1003.75;897.65;;;;;;;;;;5069455;28;20119;-77
2021/10/27 08:46:13;;;;;;;988.58;883.28;;;;;;;;;;5087233;28;20540;-77
2021/10/27 08:48:43;;;;;;;1019.40;912.67;;;;;;;;;;5080507;28;20036;-77
2021/10/27 08:51:12;;;;;;;988.85;883.60;;;;;;;;;;5069869;28;20460;-77
2021/10/27 08:53:38;;;;;;;970.50;866.45;;;;;;;;;;5061538;28;20024;-75
2021/10/27 08:56:06;;;;;;;1032.95;925.60;;;;;;;;;;5061221;28;20074;-76
2021/10/27 08:58:46;;;;;;;948.88;846.10;;;;;;;;;;5083944;28;20028;-78
2021/10/27 09:06:43;;;;;;;955.22;852.08;;;;;;;;;;5078747;28;20803;-76
2021/10/27 09:35:40;;;;;;;976.90;873.38;;;;;;;;;;5084572;28;20082;-79
2021/10/27 09:38:20;;;;;;;960.08;856.92;;;;;;;;;;5082857;28;20105;-77
2021/10/27 09:43:38;;;;;;;966.92;863.65;;;;;;;;;;5085927;28;20123;-78
2021/10/27 10:05:40;;;;;;;1065.65;958.35;;;;;;;;;;5087610;28;20047;-78
2021/10/27 10:08:08;;;;;;;1023.85;919.08;;;;;;;;;;5086865;28;20465;-78
2021/10/27 10:10:34;;;;;;;1065.15;958.40;;;;;;;;;;5065444;28;20473;-78
2021/10/27 10:13:01;;;;;;;1088.60;980.15;;;;;;;;;;5069451;28;20047;-79
2021/10/27 10:15:28;;;;;;;1075.57;968.33;;;;;;;;;;5059660;28;20056;-79
2021/10/27 10:17:55;;;;;;;1075.38;967.95;;;;;;;;;;5087820;28;20162;-78
2021/10/27 10:20:43;;;;;;;1058.32;951.17;;;;;;;;;;5094853;28;20483;-80
2021/10/27 10:23:18;;;;;;;1061.38;954.55;;;;;;;;;;5090325;28;20027;-78
2021/10/27 10:25:55;;;;;;;1024.72;919.83;;;;;;;;;;5094443;28;20032;-78
2021/10/27 10:28:22;;;;;;;1021.80;916.72;;;;;;;;;;5067278;28;20020;-76
2021/10/27 10:30:58;;;;;;;1044.53;938.17;;;;;;;;;;5076993;28;20108;-78
2021/10/27 10:33:54;;;;;;;1037.78;932.28;;;;;;;;;;5083675;28;20020;-77
2021/10/27 10:36:21;;;;;;;1025.63;920.50;;;;;;;;;;5074734;28;20484;-78
2021/10/27 10:45:05;;;;;;;1048.20;941.67;;;;;;;;;;5088426;28;20093;-79
2021/10/27 10:59:02;;;;;;;1055.70;948.60;;;;;;;;;;5090152;28;20028;-77
2021/10/27 11:11:48;;;;;;;1066.35;958.90;;;;;;;;;;5083828;28;20063;-76
2021/10/27 11:40:24;;;;;;;1083.18;974.55;;;;;;;;;;5053408;28;20548;-77
2021/10/27 11:42:58;;;;;;;1068.88;961.25;;;;;;;;;;5049235;28;20075;-76
2021/10/27 11:48:01;;;;;;;1088.53;979.58;;;;;;;;;;5048127;28;20037;-78
2021/10/27 11:50:38;;;;;;;1085.78;977.55;;;;;;;;;;5047196;28;20354;-79
2021/10/27 11:53:07;;;;;;;1096.43;986.97;;;;;;;;;;5045950;28;20469;-77
2021/10/27 11:55:34;;;;;;;1093.45;984.08;;;;;;;;;;5046276;28;20363;-78
2021/10/27 11:58:00;;;;;;;1073.05;965.38;;;;;;;;;;5047243;28;20439;-77
2021/10/27 12:00:46;;;;;;;1067.25;960.42;;;;;;;;;;5045172;28;20435;-77
2021/10/27 12:03:18;;;;;;;1074.82;966.53;;;;;;;;;;5047472;28;20052;-77
2021/10/27 12:05:57;;;;;;;1081.55;973.22;;;;;;;;;;5046738;28;20064;-78
2021/10/27 12:11:16;;;;;;;1079.45;970.90;;;;;;;;;;5048091;28;20043;-78
2021/10/27 12:16:58;;;;;;;1081.55;973.05;;;;;;;;;;5062267;28;20047;-78
2021/10/27 12:19:30;;;;;;;1078.72;970.10;;;;;;;;;;5072419;28;20012;-79
2021/10/27 12:22:00;;;;;;;1082.65;974.40;;;;;;;;;;5085007;28;20316;-77
2021/10/27 12:24:28;;;;;;;1062.18;955.10;;;;;;;;;;5087361;28;20012;-77
2021/10/27 12:27:07;;;;;;;1084.28;975.88;;;;;;;;;;5087138;28;20320;-77
2021/10/27 12:29:35;;;;;;;1078.50;970.33;;;;;;;;;;5082585;28;20019;-78
2021/10/27 12:32:05;;;;;;;1094.63;985.60;;;;;;;;;;5076156;28;20032;-78
2021/10/27 12:34:33;;;;;;;1043.18;937.40;;;;;;;;;;5067128;28;20020;-78
2021/10/27 12:37:00;;;;;;;1035.57;929.90;;;;;;;;;;5064724;28;20036;-77
2021/10/27 12:39:45;;;;;;;1072.40;964.78;;;;;;;;;;5068840;28;20119;-78
2021/10/27 12:42:12;;;;;;;1077.78;969.40;;;;;;;;;;5086758;28;20017;-79
2021/10/27 12:44:49;;;;;;;1085.28;976.80;;;;;;;;;;5065005;28;20026;-79
2021/10/27 12:47:16;;;;;;;1086.25;977.53;;;;;;;;;;5076493;28;20577;-79
2021/10/27 12:49:44;;;;;;;1106.18;995.40;;;;;;;;;;5068698;28;20028;-80
2021/10/27 12:52:27;;;;;;;1046.70;940.67;;;;;;;;;;5068118;28;20037;-79
2021/10/27 12:55:12;;;;;;;1095.05;985.33;;;;;;;;;;5074995;28;20031;-77
2021/10/27 12:57:42;;;;;;;1065.20;957.97;;;;;;;;;;5065851;28;20028;-78
2021/10/27 13:00:39;;;;;;;1058.80;952.80;;;;;;;;;;5076666;28;20567;-81
2021/10/27 13:03:20;;;;;;;1064.25;957.22;;;;;;;;;;5068071;28;20067;-78
2021/10/27 13:05:59;;;;;;;1056.28;950.03;;;;;;;;;;5086760;28;20032;-78
2021/10/27 13:11:20;;;;;;;1082.80;974.75;;;;;;;;;;5078071;28;20564;-77
2021/10/27 13:14:15;;;;;;;1031.75;926.97;;;;;;;;;;5066964;28;20765;-78
2021/10/27 13:19:24;;;;;;;1092.85;983.72;;;;;;;;;;5051634;28;20029;-78
2021/10/27 13:30:08;;;;;;;1081.40;973.53;;;;;;;;;;5051735;28;20385;-77
2021/10/27 13:32:42;;;;;;;1096.82;987.88;;;;;;;;;;5044461;28;20029;-78
2021/10/27 13:35:09;;;;;;;1081.32;973.63;;;;;;;;;;5048003;28;20014;-78
2021/10/27 13:37:35;;;;;;;1084.97;977.03;;;;;;;;;;5044190;28;20081;-78
2021/10/27 13:40:02;;;;;;;1065.88;959.08;;;;;;;;;;5040736;28;20455;-78
2021/10/27 13:42:39;;;;;;;1085.55;977.75;;;;;;;;;;5035803;28;20120;-78
2021/10/27 13:45:21;;;;;;;1107.43;995.60;;;;;;;;;;5043609;28;20033;-77
2021/10/27 13:48:03;;;;;;;1082.57;974.17;;;;;;;;;;5036229;28;20056;-77
2021/10/27 13:59:14;;;;;;;1019.92;915.35;;;;;;;;;;5044845;28;20731;-79
2021/10/27 14:07:29;;;;;;;1043.28;937.35;;;;;;;;;;5048174;28;20075;-78
2021/10/27 14:10:05;;;;;;;1017.97;913.58;;;;;;;;;;5047777;28;20028;-77
2021/10/27 14:17:44;;;;;;;1049.90;943.85;;;;;;;;;;5083041;28;20496;-79
2021/10/27 15:20:33;;;;;;;999.22;894.50;;;;;;;;;;5089584;28;20026;-79
2021/10/27 15:23:15;;;;;;;1036.18;929.35;;;;;;;;;;5084722;28;20476;-78
2021/10/27 15:36:17;;;;;;;1027.35;921.10;;;;;;;;;;5088326;28;20089;-77
2021/10/27 15:52:03;;;;;;;1055.95;947.70;;;;;;;;;;5082058;28;20544;-78
2021/10/27 15:54:29;;;;;;;1058.65;950.13;;;;;;;;;;5070934;28;20027;-77
2021/10/27 15:56:56;;;;;;;1000.15;895.45;;;;;;;;;;5067593;28;20016;-77
2021/10/27 15:59:22;;;;;;;1048.10;940.60;;;;;;;;;;5091980;28;20032;-78
2021/10/27 16:01:48;;;;;;;1042.45;934.95;;;;;;;;;;5087959;28;20047;-79
2021/10/27 16:04:14;;;;;;;1040.55;933.17;;;;;;;;;;5070054;28;20039;-79
2021/10/27 16:06:44;;;;;;;1041.80;934.00;;;;;;;;;;5079950;28;20039;-78
2021/10/27 16:09:11;;;;;;;1030.10;923.42;;;;;;;;;;5088780;28;20419;-78
2021/10/27 16:11:38;;;;;;;1034.93;927.58;;;;;;;;;;5069427;28;20020;-77
2021/10/27 16:14:04;;;;;;;1053.97;945.67;;;;;;;;;;5087383;28;20016;-78
2021/10/27 16:16:31;;;;;;;1013.92;907.83;;;;;;;;;;5065287;28;20221;-78
2021/10/27 16:18:58;;;;;;;1046.10;937.97;;;;;;;;;;5082787;28;20024;-78
2021/10/27 16:21:24;;;;;;;1025.10;918.13;;;;;;;;;;5086915;28;20495;-78
2021/10/27 16:23:51;;;;;;;1020.25;913.60;;;;;;;;;;5073291;28;20089;-78
2021/10/27 16:26:19;;;;;;;1037.03;929.10;;;;;;;;;;5087447;28;20020;-78
2021/10/27 16:28:46;;;;;;;1034.13;926.20;;;;;;;;;;5087155;28;20042;-79
2021/10/27 16:31:11;;;;;;;1001.70;895.95;;;;;;;;;;5074234;28;20024;-78
2021/10/27 16:33:39;;;;;;;1034.28;926.40;;;;;;;;;;5067148;28;20034;-79
2021/10/27 16:36:06;;;;;;;1028.80;921.35;;;;;;;;;;5067624;28;20032;-78
2021/10/27 16:38:32;;;;;;;1037.47;929.70;;;;;;;;;;5069306;28;20030;-78
2021/10/27 16:40:58;;;;;;;1034.35;926.55;;;;;;;;;;5087624;28;20036;-78
2021/10/27 16:43:24;;;;;;;1039.95;931.83;;;;;;;;;;5068218;28;20089;-79
2021/10/27 16:45:51;;;;;;;1033.68;925.95;;;;;;;;;;5067573;28;20028;-78
2021/10/27 16:48:18;;;;;;;1025.15;917.90;;;;;;;;;;5087430;28;20024;-79
2021/10/27 16:50:44;;;;;;;1017.13;910.20;;;;;;;;;;5088095;28;20028;-79
2021/10/27 16:53:10;;;;;;;1025.78;918.47;;;;;;;;;;5066275;28;20266;-80
2021/10/27 16:55:36;;;;;;;1023.00;915.67;;;;;;;;;;5088165;28;20476;-79
2021/10/27 16:58:03;;;;;;;996.75;890.97;;;;;;;;;;5069904;28;20042;-79
2021/10/27 17:00:31;;;;;;;1002.78;896.58;;;;;;;;;;5069956;28;20519;-79
2021/10/27 17:02:57;;;;;;;1014.97;907.97;;;;;;;;;;5086475;28;20031;-79
2021/10/27 17:05:23;;;;;;;1031.45;923.47;;;;;;;;;;5056499;28;20028;-80
2021/10/27 17:07:49;;;;;;;1012.13;904.53;;;;;;;;;;5087312;28;20035;-79
2021/10/27 17:10:16;;;;;;;1029.80;921.90;;;;;;;;;;5082079;28;20024;-79
2021/10/27 17:12:43;;;;;;;1025.03;917.35;;;;;;;;;;5067118;28;20024;-79
2021/10/27 17:15:09;;;;;;;1015.47;908.33;;;;;;;;;;5067295;28;20020;-80
2021/10/27 17:17:36;;;;;;;1020.88;913.33;;;;;;;;;;5087394;28;20085;-79
2021/10/27 17:20:02;;;;;;;994.42;888.22;;;;;;;;;;5086824;28;20020;-80
2021/10/27 17:22:29;;;;;;;1020.47;912.85;;;;;;;;;;5086816;28;20528;-80
2021/10/27 17:24:56;;;;;;;1007.35;900.70;;;;;;;;;;5067560;28;20024;-80
2021/10/27 17:27:22;;;;;;;1016.83;909.45;;;;;;;;;;5069051;28;20043;-80
2021/10/27 17:29:49;;;;;;;1028.30;919.95;;;;;;;;;;5080604;28;20032;-80
2021/10/27 17:32:16;;;;;;;1015.22;908.25;;;;;;;;;;5071064;28;20411;-80
2021/10/27 17:34:43;;;;;;;1027.07;918.97;;;;;;;;;;5068491;28;20447;-80
2021/10/27 17:37:10;;;;;;;1032.30;924.13;;;;;;;;;;5069931;28;20047;-80
2021/10/27 17:39:38;;;;;;;1027.40;919.53;;;;;;;;;;5087989;28;20024;-80
2021/10/27 17:42:05;;;;;;;1013.28;906.17;;;;;;;;;;5073380;28;20036;-79
2021/10/27 17:44:31;;;;;;;1032.75;924.35;;;;;;;;;;5069241;28;20031;-80
2021/10/27 17:47:02;;;;;;;1024.38;916.53;;;;;;;;;;5087398;28;20039;-80
2021/10/27 17:52:28;;;;;;;983.40;876.95;;;;;;;;;;5086459;28;19915;-80
2021/10/27 17:57:59;;;;;;;995.85;888.83;;;;;;;;;;5088048;28;20046;-80
2021/10/27 18:00:25;;;;;;;989.33;882.65;;;;;;;;;;5090487;28;20392;-80
2021/10/27 18:02:51;;;;;;;1009.70;902.20;;;;;;;;;;5091089;28;20459;-80
2021/10/27 18:05:17;;;;;;;992.75;885.92;;;;;;;;;;5090159;28;20030;-80
2021/10/27 18:07:43;;;;;;;985.13;878.92;;;;;;;;;;5072585;28;20020;-79
2021/10/27 18:10:13;;;;;;;973.17;867.45;;;;;;;;;;5090604;28;20021;-80
2021/10/27 18:12:39;;;;;;;963.75;858.28;;;;;;;;;;5088678;28;20034;-80
2021/10/27 18:15:07;;;;;;;965.22;859.78;;;;;;;;;;5088775;28;20613;-80
2021/10/27 18:17:36;;;;;;;989.33;882.90;;;;;;;;;;5070417;28;20044;-80
2021/10/27 18:22:45;;;;;;;998.20;891.28;;;;;;;;;;5090128;28;20036;-80